Time;durP1;ratioP1;P1;durP2;ratioP2;P2;SDS_P1;SDS_P2;PMS_P1;PMS_P2;Temp;Humidity;BMP_temperature;BMP_pressure;BME280_temperature;BME280_humidity;BME280_pressure;Samples;Min_cycle;Max_cycle;Signal;HPM_P1;HPM_P2
2023/08/21 00:00:44;;;;;;;1522.57;931.75;;;;;;;;;;6113102;23;20806;-87
2023/08/21 00:03:10;;;;;;;1595.60;941.78;;;;;;;;;;6103906;23;20031;-87
2023/08/21 00:05:37;;;;;;;1573.47;934.97;;;;;;;;;;6109114;23;20020;-87
2023/08/21 00:08:04;;;;;;;1574.20;932.95;;;;;;;;;;6102612;23;20273;-87
2023/08/21 00:10:32;;;;;;;1768.93;965.00;;;;;;;;;;6127215;22;20023;-87
2023/08/21 00:12:59;;;;;;;1592.22;939.13;;;;;;;;;;6099076;23;20507;-87
2023/08/21 00:15:26;;;;;;;1601.60;939.55;;;;;;;;;;6097890;23;20952;-87
2023/08/21 00:17:52;;;;;;;1707.95;951.30;;;;;;;;;;6095884;23;20118;-87
2023/08/21 00:20:19;;;;;;;1619.72;945.47;;;;;;;;;;6102430;23;20027;-88
2023/08/21 00:22:46;;;;;;;1624.75;941.17;;;;;;;;;;6072519;23;20070;-87
2023/08/21 00:25:13;;;;;;;1675.30;949.28;;;;;;;;;;6098818;23;20015;-87
2023/08/21 00:27:39;;;;;;;1672.95;942.45;;;;;;;;;;6099441;23;20858;-87
2023/08/21 00:30:07;;;;;;;1637.18;943.90;;;;;;;;;;6091275;23;20058;-87
2023/08/21 00:32:33;;;;;;;1759.85;954.20;;;;;;;;;;6090347;23;20177;-87
2023/08/21 00:35:01;;;;;;;1693.85;946.20;;;;;;;;;;6098159;23;20031;-87
2023/08/21 00:37:28;;;;;;;1741.70;954.53;;;;;;;;;;6093078;23;20017;-87
2023/08/21 00:39:55;;;;;;;1761.32;953.30;;;;;;;;;;6092034;23;20899;-87
2023/08/21 00:42:21;;;;;;;1672.88;940.17;;;;;;;;;;6088294;23;20016;-87
2023/08/21 00:44:48;;;;;;;1627.88;932.58;;;;;;;;;;6119563;22;20016;-88
2023/08/21 00:47:15;;;;;;;1789.32;955.08;;;;;;;;;;6088030;23;20082;-87
2023/08/21 00:49:42;;;;;;;1728.80;945.97;;;;;;;;;;6089807;23;20077;-87
2023/08/21 00:52:10;;;;;;;1582.50;924.08;;;;;;;;;;6107250;23;20012;-87
2023/08/21 00:54:37;;;;;;;1592.57;920.78;;;;;;;;;;6097030;23;20024;-87
2023/08/21 00:57:05;;;;;;;1634.07;924.17;;;;;;;;;;6070979;23;20930;-87
2023/08/21 00:59:32;;;;;;;1597.57;925.65;;;;;;;;;;6098787;23;21094;-87
2023/08/21 01:01:59;;;;;;;1632.63;928.15;;;;;;;;;;6132144;22;20016;-87
2023/08/21 01:04:25;;;;;;;1815.53;959.63;;;;;;;;;;6096517;23;20024;-87
2023/08/21 01:06:52;;;;;;;1590.50;921.78;;;;;;;;;;6107463;23;20849;-87
2023/08/21 01:09:19;;;;;;;1596.75;922.92;;;;;;;;;;6105771;23;20867;-87
2023/08/21 01:11:57;;;;;;;1685.57;928.80;;;;;;;;;;6100736;23;20020;-87
2023/08/21 01:14:37;;;;;;;1664.75;926.80;;;;;;;;;;6092508;23;20027;-87
2023/08/21 01:17:07;;;;;;;1737.43;938.38;;;;;;;;;;6099612;23;20035;-87
2023/08/21 01:19:40;;;;;;;1726.65;933.38;;;;;;;;;;6076366;23;20020;-87
2023/08/21 01:22:06;;;;;;;1628.30;920.53;;;;;;;;;;6072552;23;20024;-87
2023/08/21 01:24:34;;;;;;;1788.70;941.15;;;;;;;;;;6068550;23;20020;-87
2023/08/21 01:27:02;;;;;;;1600.78;915.22;;;;;;;;;;6102308;23;20023;-87
2023/08/21 01:29:29;;;;;;;1638.00;917.55;;;;;;;;;;6097701;23;20012;-87
2023/08/21 01:32:08;;;;;;;1740.38;936.72;;;;;;;;;;6101947;23;20016;-87
2023/08/21 01:34:37;;;;;;;1829.75;950.08;;;;;;;;;;6101789;23;20027;-87
2023/08/21 01:37:04;;;;;;;1676.30;926.17;;;;;;;;;;6095609;23;21054;-87
2023/08/21 01:39:31;;;;;;;1593.63;905.25;;;;;;;;;;6094033;23;20020;-87
2023/08/21 01:41:58;;;;;;;1566.00;903.85;;;;;;;;;;6100075;23;20025;-87
2023/08/21 01:44:26;;;;;;;1738.60;926.70;;;;;;;;;;6066926;23;20027;-87
2023/08/21 01:46:53;;;;;;;1651.68;909.97;;;;;;;;;;6094968;23;20023;-87
2023/08/21 01:49:20;;;;;;;1698.97;917.42;;;;;;;;;;6101519;23;20020;-87
2023/08/21 01:51:47;;;;;;;1612.13;911.47;;;;;;;;;;6103819;23;20012;-87
2023/08/21 01:54:14;;;;;;;1573.15;896.72;;;;;;;;;;6097699;23;20126;-87
2023/08/21 01:56:40;;;;;;;1600.93;907.13;;;;;;;;;;6100115;23;20020;-87
2023/08/21 01:59:07;;;;;;;1596.60;899.80;;;;;;;;;;6106483;23;20024;-87
2023/08/21 02:04:36;;;;;;;754.60;693.08;;;;;;;;;;6337163;22;20023;-66
2023/08/21 02:07:03;;;;;;;759.42;699.28;;;;;;;;;;6311825;22;20019;-69
2023/08/21 02:09:30;;;;;;;748.60;690.60;;;;;;;;;;6311346;22;20341;-68
2023/08/21 02:11:56;;;;;;;745.90;687.95;;;;;;;;;;6311369;22;20021;-67
2023/08/21 02:14:23;;;;;;;749.78;691.00;;;;;;;;;;6310990;22;20015;-67
2023/08/21 02:16:49;;;;;;;757.45;697.10;;;;;;;;;;6311021;22;20045;-67
2023/08/21 02:19:16;;;;;;;752.30;693.58;;;;;;;;;;6311464;22;20419;-67
2023/08/21 02:21:43;;;;;;;753.03;694.90;;;;;;;;;;6338465;22;20014;-67
2023/08/21 02:24:09;;;;;;;753.05;694.97;;;;;;;;;;6338528;22;20014;-67
2023/08/21 02:26:37;;;;;;;760.75;700.05;;;;;;;;;;6338709;22;20051;-67
2023/08/21 02:29:04;;;;;;;762.72;701.78;;;;;;;;;;6338803;22;20015;-67
2023/08/21 02:31:32;;;;;;;768.40;705.33;;;;;;;;;;6339083;22;20015;-67
2023/08/21 02:33:58;;;;;;;750.35;692.05;;;;;;;;;;6311222;22;20344;-67
2023/08/21 02:36:25;;;;;;;750.50;692.03;;;;;;;;;;6338559;22;20495;-67
2023/08/21 02:38:52;;;;;;;752.05;692.83;;;;;;;;;;6310885;22;20022;-67
2023/08/21 02:41:19;;;;;;;751.90;693.03;;;;;;;;;;6338598;22;20098;-66
2023/08/21 02:43:45;;;;;;;755.83;696.75;;;;;;;;;;6338309;22;20093;-66
2023/08/21 02:46:14;;;;;;;751.42;692.55;;;;;;;;;;6311362;22;20068;-66
2023/08/21 02:48:40;;;;;;;759.65;700.00;;;;;;;;;;6310737;22;20026;-66
2023/08/21 02:51:07;;;;;;;747.13;689.85;;;;;;;;;;6285092;22;20014;-66
2023/08/21 02:53:33;;;;;;;760.85;700.03;;;;;;;;;;6310901;22;20035;-67
2023/08/21 02:56:00;;;;;;;747.55;687.97;;;;;;;;;;6310914;22;20337;-66
2023/08/21 02:58:28;;;;;;;741.83;682.55;;;;;;;;;;6311338;22;20021;-67
2023/08/21 03:00:57;;;;;;;751.88;692.78;;;;;;;;;;6311454;22;20019;-66
2023/08/21 03:03:24;;;;;;;749.35;690.28;;;;;;;;;;6310533;22;20033;-66
2023/08/21 03:05:51;;;;;;;744.67;684.67;;;;;;;;;;6310620;22;20427;-66
2023/08/21 03:08:17;;;;;;;749.75;691.22;;;;;;;;;;6310749;22;20082;-66
2023/08/21 03:10:44;;;;;;;747.17;688.30;;;;;;;;;;6310912;22;20121;-66
2023/08/21 03:13:10;;;;;;;735.50;677.28;;;;;;;;;;6311146;22;20084;-67
2023/08/21 03:15:46;;;;;;;744.25;685.97;;;;;;;;;;6338353;22;20451;-66
2023/08/21 03:18:18;;;;;;;750.78;690.97;;;;;;;;;;6310567;22;20030;-67
2023/08/21 03:20:54;;;;;;;747.70;689.42;;;;;;;;;;6285043;22;20023;-66
2023/08/21 03:23:23;;;;;;;728.83;671.53;;;;;;;;;;6310937;22;20015;-66
2023/08/21 03:25:55;;;;;;;732.05;673.15;;;;;;;;;;6338212;22;20436;-65
2023/08/21 03:28:27;;;;;;;742.30;681.38;;;;;;;;;;6285768;22;20026;-66
2023/08/21 03:30:56;;;;;;;752.53;693.08;;;;;;;;;;6338406;22;20011;-67
2023/08/21 03:33:32;;;;;;;742.97;684.10;;;;;;;;;;6284514;22;20021;-66
2023/08/21 03:36:05;;;;;;;743.13;682.47;;;;;;;;;;6284812;22;20023;-66
2023/08/21 03:38:31;;;;;;;743.17;683.88;;;;;;;;;;6285887;22;20038;-67
2023/08/21 03:40:59;;;;;;;750.55;690.38;;;;;;;;;;6338033;22;20023;-67
2023/08/21 03:43:26;;;;;;;755.10;692.10;;;;;;;;;;6310576;22;20018;-66
2023/08/21 03:45:55;;;;;;;739.88;680.50;;;;;;;;;;6338295;22;20010;-67
2023/08/21 03:48:23;;;;;;;740.72;680.58;;;;;;;;;;6309606;22;20018;-67
2023/08/21 03:50:53;;;;;;;744.05;685.67;;;;;;;;;;6338296;22;20022;-66
2023/08/21 03:53:25;;;;;;;738.13;680.83;;;;;;;;;;6310383;22;20015;-66
2023/08/21 03:55:57;;;;;;;742.65;682.22;;;;;;;;;;6310447;22;20010;-66
2023/08/21 03:58:26;;;;;;;754.80;691.08;;;;;;;;;;6311310;22;20089;-67
2023/08/21 04:00:53;;;;;;;733.95;676.30;;;;;;;;;;6284902;22;20040;-67
2023/08/21 04:03:20;;;;;;;740.72;682.67;;;;;;;;;;6309836;22;20475;-67
2023/08/21 04:05:47;;;;;;;730.72;673.55;;;;;;;;;;6338038;22;20023;-67
2023/08/21 04:08:14;;;;;;;746.13;687.58;;;;;;;;;;6310282;22;20018;-66
2023/08/21 04:10:41;;;;;;;746.42;685.88;;;;;;;;;;6310316;22;20349;-66
2023/08/21 04:13:08;;;;;;;750.72;692.33;;;;;;;;;;6310523;22;20037;-66
2023/08/21 04:15:35;;;;;;;753.95;693.17;;;;;;;;;;6337815;22;20011;-66
2023/08/21 04:18:03;;;;;;;755.55;695.78;;;;;;;;;;6336897;22;20011;-66
2023/08/21 04:20:30;;;;;;;741.85;682.80;;;;;;;;;;6310037;22;20022;-67
2023/08/21 04:22:57;;;;;;;771.05;707.50;;;;;;;;;;6338276;22;20019;-67
2023/08/21 04:25:24;;;;;;;767.03;704.28;;;;;;;;;;6338190;22;20015;-66
2023/08/21 04:27:50;;;;;;;773.95;712.50;;;;;;;;;;6310339;22;20337;-66
2023/08/21 04:30:17;;;;;;;766.15;707.13;;;;;;;;;;6309954;22;20642;-66
2023/08/21 04:32:44;;;;;;;776.75;715.13;;;;;;;;;;6337512;22;20007;-66
2023/08/21 04:35:11;;;;;;;778.88;717.58;;;;;;;;;;6310041;22;20019;-66
2023/08/21 04:37:42;;;;;;;782.38;718.80;;;;;;;;;;6310019;22;20050;-66
2023/08/21 04:40:11;;;;;;;778.45;717.30;;;;;;;;;;6310621;22;20101;-66
2023/08/21 04:42:40;;;;;;;777.95;717.70;;;;;;;;;;6310061;22;20075;-66
2023/08/21 04:45:07;;;;;;;799.97;737.58;;;;;;;;;;6309757;22;20029;-66
2023/08/21 04:47:36;;;;;;;816.75;751.42;;;;;;;;;;6309816;22;20053;-66
2023/08/21 04:50:03;;;;;;;836.45;770.67;;;;;;;;;;6309641;22;20034;-66
2023/08/21 04:52:30;;;;;;;833.00;760.50;;;;;;;;;;6284462;22;20019;-66
2023/08/21 04:54:58;;;;;;;847.22;780.45;;;;;;;;;;6337798;22;20021;-66
2023/08/21 04:57:26;;;;;;;859.25;790.40;;;;;;;;;;6337167;22;20018;-66
2023/08/21 04:59:53;;;;;;;865.28;795.88;;;;;;;;;;6309953;22;20075;-66
2023/08/21 05:02:21;;;;;;;865.10;796.00;;;;;;;;;;6309441;22;20311;-67
2023/08/21 05:04:49;;;;;;;855.60;786.53;;;;;;;;;;6309334;22;20031;-65
2023/08/21 05:07:16;;;;;;;848.35;780.17;;;;;;;;;;6337605;22;20019;-65
2023/08/21 05:09:43;;;;;;;840.15;773.55;;;;;;;;;;6337179;22;20014;-65
2023/08/21 05:12:11;;;;;;;841.10;774.90;;;;;;;;;;6310001;22;20503;-65
2023/08/21 05:14:38;;;;;;;852.40;785.22;;;;;;;;;;6309663;22;20482;-65
2023/08/21 05:17:05;;;;;;;855.67;788.10;;;;;;;;;;6310115;22;20018;-64
2023/08/21 05:19:34;;;;;;;855.33;785.67;;;;;;;;;;6337204;22;20079;-65
2023/08/21 05:22:01;;;;;;;850.88;781.95;;;;;;;;;;6337672;22;20022;-65
2023/08/21 05:24:30;;;;;;;829.15;763.97;;;;;;;;;;6284629;22;20094;-66
2023/08/21 05:27:01;;;;;;;836.58;771.65;;;;;;;;;;6309595;22;20026;-65
2023/08/21 05:29:28;;;;;;;831.80;763.45;;;;;;;;;;6310685;22;20101;-66
2023/08/21 05:31:56;;;;;;;825.95;759.63;;;;;;;;;;6311768;22;20021;-67
2023/08/21 05:34:25;;;;;;;850.47;781.58;;;;;;;;;;6311642;22;20022;-67
2023/08/21 05:36:54;;;;;;;849.95;781.40;;;;;;;;;;6312152;22;20023;-67
2023/08/21 05:39:23;;;;;;;854.15;786.92;;;;;;;;;;6311885;22;20083;-68
2023/08/21 05:41:50;;;;;;;870.65;801.60;;;;;;;;;;6311643;22;20068;-67
2023/08/21 05:44:18;;;;;;;873.40;804.08;;;;;;;;;;6311823;22;20046;-67
2023/08/21 05:46:45;;;;;;;874.50;805.03;;;;;;;;;;6311829;22;20019;-67
2023/08/21 05:49:12;;;;;;;865.53;797.47;;;;;;;;;;6286465;22;20022;-67
2023/08/21 05:51:38;;;;;;;868.03;799.70;;;;;;;;;;6311508;22;20038;-67
2023/08/21 05:54:07;;;;;;;879.22;809.50;;;;;;;;;;6311625;22;20048;-66
2023/08/21 05:56:35;;;;;;;868.00;800.17;;;;;;;;;;6311323;22;20444;-67
2023/08/21 05:59:02;;;;;;;865.03;795.55;;;;;;;;;;6285779;22;20329;-67
2023/08/21 06:01:28;;;;;;;877.95;803.97;;;;;;;;;;6311534;22;20015;-67
2023/08/21 06:03:56;;;;;;;861.75;793.85;;;;;;;;;;6311292;22;20023;-67
2023/08/21 06:06:49;;;;;;;845.80;779.63;;;;;;;;;;6339145;22;20021;-67
2023/08/21 06:09:19;;;;;;;850.17;783.85;;;;;;;;;;6311628;22;20018;-66
2023/08/21 06:11:46;;;;;;;854.83;788.00;;;;;;;;;;6338871;22;20007;-67
2023/08/21 06:14:13;;;;;;;863.05;795.60;;;;;;;;;;6338584;22;20094;-67
2023/08/21 06:16:40;;;;;;;859.22;789.13;;;;;;;;;;6311282;22;20481;-67
2023/08/21 06:19:07;;;;;;;870.80;801.72;;;;;;;;;;6311775;22;20015;-66
2023/08/21 06:21:33;;;;;;;867.80;799.47;;;;;;;;;;6310928;22;20011;-66
2023/08/21 06:24:00;;;;;;;894.90;824.30;;;;;;;;;;6311247;22;20348;-66
2023/08/21 06:26:28;;;;;;;1776.93;999.90;;;;;;;;;;6169313;22;20023;-84
2023/08/21 06:28:55;;;;;;;1720.80;999.90;;;;;;;;;;6162748;22;20026;-84
2023/08/21 06:31:21;;;;;;;1652.72;999.90;;;;;;;;;;6204449;22;20080;-84
2023/08/21 06:33:48;;;;;;;1683.25;999.90;;;;;;;;;;6196710;22;20117;-86
2023/08/21 06:36:16;;;;;;;1662.53;999.90;;;;;;;;;;6232990;22;20857;-84
2023/08/21 06:38:44;;;;;;;1690.88;999.90;;;;;;;;;;6190358;22;20958;-84
2023/08/21 06:41:11;;;;;;;1648.03;999.90;;;;;;;;;;6227006;22;20184;-85
2023/08/21 06:43:38;;;;;;;1872.40;999.90;;;;;;;;;;6191515;22;20018;-84
2023/08/21 06:46:10;;;;;;;1689.70;999.90;;;;;;;;;;6170230;22;20139;-85
2023/08/21 06:48:38;;;;;;;1770.13;999.90;;;;;;;;;;6192336;22;20021;-85
2023/08/21 06:51:05;;;;;;;1686.32;999.90;;;;;;;;;;6221480;22;20835;-85
2023/08/21 06:53:31;;;;;;;1653.28;999.90;;;;;;;;;;6221156;22;20043;-85
2023/08/21 06:55:58;;;;;;;1778.13;999.90;;;;;;;;;;6225890;22;20018;-84
2023/08/21 06:58:26;;;;;;;1720.85;999.90;;;;;;;;;;6229785;22;20015;-83
2023/08/21 07:00:53;;;;;;;1668.07;999.90;;;;;;;;;;6225717;22;20176;-84
2023/08/21 07:03:20;;;;;;;1543.53;988.65;;;;;;;;;;6224904;22;20022;-86
2023/08/21 07:05:52;;;;;;;1676.40;999.90;;;;;;;;;;6241446;22;20075;-86
2023/08/21 07:08:19;;;;;;;1602.65;999.90;;;;;;;;;;6205766;22;21003;-84
2023/08/21 07:10:46;;;;;;;1711.72;999.90;;;;;;;;;;6228902;22;20879;-85
2023/08/21 07:13:12;;;;;;;1660.80;999.90;;;;;;;;;;6224487;22;20022;-85
2023/08/21 07:15:39;;;;;;;1695.40;999.90;;;;;;;;;;6225349;22;20073;-85
2023/08/21 07:18:05;;;;;;;1668.72;999.90;;;;;;;;;;6227293;22;20949;-85
2023/08/21 07:20:32;;;;;;;1759.10;999.90;;;;;;;;;;6222579;22;20018;-83
2023/08/21 07:22:59;;;;;;;1722.80;999.90;;;;;;;;;;6218856;22;20014;-84
2023/08/21 07:25:26;;;;;;;1749.75;999.90;;;;;;;;;;6220360;22;20997;-82
2023/08/21 07:27:54;;;;;;;1794.57;999.90;;;;;;;;;;6219619;22;21003;-84
2023/08/21 07:30:22;;;;;;;1707.63;999.90;;;;;;;;;;6225990;22;20029;-85
2023/08/21 07:32:48;;;;;;;1724.60;999.90;;;;;;;;;;6218091;22;20190;-84
2023/08/21 07:35:15;;;;;;;1722.53;999.90;;;;;;;;;;6225106;22;20125;-85
2023/08/21 07:37:45;;;;;;;1800.07;999.90;;;;;;;;;;6228157;22;20024;-85
2023/08/21 07:40:11;;;;;;;1628.95;999.90;;;;;;;;;;6230257;22;20075;-85
2023/08/21 07:42:38;;;;;;;1832.82;999.90;;;;;;;;;;6218967;22;20854;-84
2023/08/21 07:45:05;;;;;;;1740.38;999.90;;;;;;;;;;6218878;22;20025;-84
2023/08/21 07:47:32;;;;;;;1690.28;999.90;;;;;;;;;;6219815;22;21142;-85
2023/08/21 07:50:02;;;;;;;1684.40;999.90;;;;;;;;;;6219500;22;20199;-85
2023/08/21 07:52:29;;;;;;;1788.72;999.90;;;;;;;;;;6226037;22;20014;-86
2023/08/21 07:54:55;;;;;;;1589.82;991.35;;;;;;;;;;6225294;22;20076;-86
2023/08/21 07:57:22;;;;;;;1665.47;999.90;;;;;;;;;;6228484;22;20807;-86
2023/08/21 07:59:48;;;;;;;1687.65;998.40;;;;;;;;;;6198389;22;20662;-85
2023/08/21 08:02:15;;;;;;;1673.85;999.90;;;;;;;;;;6193283;22;20500;-86
2023/08/21 08:04:43;;;;;;;1752.90;999.90;;;;;;;;;;6219327;22;20041;-85
2023/08/21 08:07:09;;;;;;;1714.65;999.90;;;;;;;;;;6219573;22;20604;-86
2023/08/21 08:09:36;;;;;;;1579.80;984.42;;;;;;;;;;6227572;22;20014;-86
2023/08/21 08:12:03;;;;;;;1681.80;999.90;;;;;;;;;;6226443;22;20874;-86
2023/08/21 08:14:31;;;;;;;1773.78;999.90;;;;;;;;;;6224504;22;20893;-86
2023/08/21 08:16:58;;;;;;;1691.00;998.67;;;;;;;;;;6219805;22;20073;-87
2023/08/21 08:19:25;;;;;;;1690.88;998.80;;;;;;;;;;6226930;22;20015;-86
2023/08/21 08:21:51;;;;;;;1707.80;999.90;;;;;;;;;;6222687;22;21232;-87
2023/08/21 08:24:18;;;;;;;1635.55;996.35;;;;;;;;;;6204662;22;20022;-86
2023/08/21 08:26:45;;;;;;;1514.32;979.10;;;;;;;;;;6228807;22;20815;-88
2023/08/21 08:29:12;;;;;;;1596.43;985.40;;;;;;;;;;6205041;22;20734;-87
2023/08/21 08:31:39;;;;;;;1691.70;999.58;;;;;;;;;;6233613;22;20768;-88
2023/08/21 08:34:05;;;;;;;1583.75;988.80;;;;;;;;;;6237077;22;20014;-86
2023/08/21 08:36:32;;;;;;;1556.32;989.10;;;;;;;;;;6239448;22;20021;-86
2023/08/21 08:38:59;;;;;;;1374.53;962.08;;;;;;;;;;6247107;22;20871;-87
2023/08/21 08:41:38;;;;;;;1480.63;986.70;;;;;;;;;;6242898;22;20099;-88
2023/08/21 08:44:04;;;;;;;1483.43;974.50;;;;;;;;;;6250828;22;20917;-87
2023/08/21 08:46:31;;;;;;;1746.22;999.90;;;;;;;;;;6223292;22;20557;-87
2023/08/21 08:48:58;;;;;;;1426.60;973.25;;;;;;;;;;6250566;22;20499;-87
2023/08/21 08:51:24;;;;;;;1374.30;959.42;;;;;;;;;;6257124;22;20451;-88
2023/08/21 08:53:51;;;;;;;1527.50;977.15;;;;;;;;;;6247573;22;20026;-87
2023/08/21 08:56:17;;;;;;;1535.13;985.58;;;;;;;;;;6235111;22;20073;-87
2023/08/21 08:58:44;;;;;;;1452.15;973.53;;;;;;;;;;6250128;22;20496;-88
2023/08/21 09:01:11;;;;;;;1337.47;957.13;;;;;;;;;;6266071;22;20022;-88
2023/08/21 09:03:38;;;;;;;1220.18;941.00;;;;;;;;;;6272232;22;20517;-90
2023/08/21 09:06:05;;;;;;;1360.03;967.40;;;;;;;;;;6251755;22;20961;-87
2023/08/21 09:08:31;;;;;;;1200.03;938.90;;;;;;;;;;6269417;22;20760;-86
2023/08/21 09:11:04;;;;;;;1236.82;949.35;;;;;;;;;;6263245;22;20037;-89
2023/08/21 09:13:31;;;;;;;924.83;844.95;;;;;;;;;;6292783;22;20093;-86
2023/08/21 09:15:58;;;;;;;1007.03;899.63;;;;;;;;;;6321165;22;20014;-88
2023/08/21 09:18:25;;;;;;;1386.55;978.85;;;;;;;;;;6276157;22;20014;-88
2023/08/21 09:20:51;;;;;;;1234.93;957.90;;;;;;;;;;6272048;22;20029;-90
2023/08/21 09:23:18;;;;;;;1311.30;961.33;;;;;;;;;;6270891;22;20014;-91
2023/08/21 09:25:48;;;;;;;1256.25;956.40;;;;;;;;;;6278623;22;20576;-87
2023/08/21 09:28:20;;;;;;;1123.82;930.53;;;;;;;;;;6277180;22;20099;-88
2023/08/21 09:30:47;;;;;;;1470.53;995.65;;;;;;;;;;6269876;22;20807;-87
2023/08/21 09:33:16;;;;;;;1503.35;999.55;;;;;;;;;;6248124;22;20076;-87
2023/08/21 09:35:43;;;;;;;1677.53;999.90;;;;;;;;;;6238462;22;20079;-87
2023/08/21 09:38:10;;;;;;;1619.70;999.90;;;;;;;;;;6241622;22;20034;-86
2023/08/21 09:40:41;;;;;;;1700.20;999.90;;;;;;;;;;6236844;22;20018;-86
2023/08/21 09:43:08;;;;;;;1522.38;999.90;;;;;;;;;;6249337;22;20014;-86
2023/08/21 09:45:36;;;;;;;1543.53;999.90;;;;;;;;;;6242435;22;21083;-87
2023/08/21 09:48:03;;;;;;;1682.38;999.90;;;;;;;;;;6207143;22;21237;-86
2023/08/21 09:50:30;;;;;;;1691.07;999.90;;;;;;;;;;6228496;22;20037;-85
2023/08/21 09:52:57;;;;;;;1627.18;999.90;;;;;;;;;;6202751;22;20182;-86
2023/08/21 09:55:29;;;;;;;1572.22;999.90;;;;;;;;;;6229741;22;20296;-87
2023/08/21 09:57:58;;;;;;;1664.07;999.90;;;;;;;;;;6226072;22;20021;-85
2023/08/21 10:00:35;;;;;;;1710.65;999.90;;;;;;;;;;6218166;22;21096;-87
2023/08/21 10:03:03;;;;;;;1721.22;999.90;;;;;;;;;;6226060;22;20022;-85
2023/08/21 10:05:31;;;;;;;1700.45;999.90;;;;;;;;;;6193550;22;20018;-86
2023/08/21 10:08:00;;;;;;;1639.10;999.90;;;;;;;;;;6224648;22;20214;-86
2023/08/21 10:10:28;;;;;;;1637.57;999.90;;;;;;;;;;6231070;22;20025;-86
2023/08/21 10:12:54;;;;;;;1712.63;999.90;;;;;;;;;;6199562;22;20045;-87
2023/08/21 10:15:21;;;;;;;1609.82;999.90;;;;;;;;;;6207491;22;20052;-86
2023/08/21 10:17:48;;;;;;;1563.18;999.90;;;;;;;;;;6239062;22;20011;-87
2023/08/21 10:20:20;;;;;;;1541.03;996.35;;;;;;;;;;6248912;22;20808;-86
2023/08/21 10:22:54;;;;;;;1510.53;999.90;;;;;;;;;;6245133;22;20010;-88
2023/08/21 10:25:28;;;;;;;1366.03;982.85;;;;;;;;;;6258275;22;20050;-87
2023/08/21 10:27:59;;;;;;;1626.65;999.90;;;;;;;;;;6245520;22;20905;-86
2023/08/21 10:30:27;;;;;;;1650.53;999.90;;;;;;;;;;6241377;22;20531;-87
2023/08/21 10:32:55;;;;;;;1515.22;999.90;;;;;;;;;;6238638;22;20044;-86
2023/08/21 10:35:23;;;;;;;1652.68;999.90;;;;;;;;;;6209853;22;20508;-87
2023/08/21 10:38:05;;;;;;;1704.88;999.90;;;;;;;;;;6236205;22;20018;-87
2023/08/21 10:40:32;;;;;;;1697.80;999.90;;;;;;;;;;6233558;22;20935;-85
2023/08/21 10:42:59;;;;;;;1626.90;999.90;;;;;;;;;;6235074;22;20784;-86
2023/08/21 10:45:26;;;;;;;1515.85;999.90;;;;;;;;;;6236088;22;20019;-88
2023/08/21 10:47:52;;;;;;;1612.65;999.90;;;;;;;;;;6245721;22;21146;-87
2023/08/21 10:50:19;;;;;;;1587.32;999.90;;;;;;;;;;6243761;22;21010;-87
2023/08/21 10:52:46;;;;;;;1574.82;999.90;;;;;;;;;;6241257;22;20010;-87
2023/08/21 10:55:14;;;;;;;1698.20;999.90;;;;;;;;;;6245337;22;20018;-85
2023/08/21 10:57:44;;;;;;;1625.93;999.90;;;;;;;;;;6204121;22;21004;-85
2023/08/21 11:00:12;;;;;;;1798.60;999.90;;;;;;;;;;6203177;22;20018;-86
2023/08/21 11:02:39;;;;;;;1778.97;999.90;;;;;;;;;;6235732;22;20891;-86
2023/08/21 11:05:07;;;;;;;1769.63;999.90;;;;;;;;;;6230026;22;20099;-86
2023/08/21 11:07:38;;;;;;;1849.20;999.90;;;;;;;;;;6200925;22;20863;-84
2023/08/21 11:10:07;;;;;;;1804.30;999.90;;;;;;;;;;6233822;22;20161;-85
2023/08/21 11:12:37;;;;;;;1809.63;999.90;;;;;;;;;;6224208;22;20045;-83
2023/08/21 11:15:04;;;;;;;1853.60;999.90;;;;;;;;;;6224743;22;20086;-84
2023/08/21 11:17:30;;;;;;;1829.43;999.90;;;;;;;;;;6224175;22;20018;-84
2023/08/21 11:20:00;;;;;;;1816.70;999.90;;;;;;;;;;6225162;22;21036;-85
2023/08/21 11:22:31;;;;;;;1843.30;999.90;;;;;;;;;;6203959;22;20018;-85
2023/08/21 11:24:59;;;;;;;1823.47;999.90;;;;;;;;;;6222964;22;20027;-85
2023/08/21 11:27:25;;;;;;;1832.60;999.90;;;;;;;;;;6220476;22;20018;-84
2023/08/21 11:29:52;;;;;;;1867.45;999.90;;;;;;;;;;6218484;22;21089;-84
2023/08/21 11:32:20;;;;;;;1829.07;999.90;;;;;;;;;;6220192;22;20014;-84
2023/08/21 11:34:49;;;;;;;1841.03;999.90;;;;;;;;;;6220460;22;20179;-84
2023/08/21 11:37:17;;;;;;;1871.43;999.90;;;;;;;;;;6219576;22;21002;-84
2023/08/21 11:39:45;;;;;;;1844.00;999.90;;;;;;;;;;6197533;22;20014;-85
2023/08/21 11:42:12;;;;;;;1851.97;999.90;;;;;;;;;;6218805;22;20018;-84
2023/08/21 11:44:43;;;;;;;1819.80;999.90;;;;;;;;;;6219166;22;20022;-84
2023/08/21 11:47:10;;;;;;;1916.57;999.90;;;;;;;;;;6218075;22;20030;-84
2023/08/21 11:49:37;;;;;;;1872.03;999.90;;;;;;;;;;6224708;22;20038;-85
2023/08/21 11:52:04;;;;;;;1831.70;999.90;;;;;;;;;;6220633;22;20364;-85
2023/08/21 11:54:35;;;;;;;1884.20;999.90;;;;;;;;;;6217968;22;21112;-84
2023/08/21 11:57:09;;;;;;;1873.00;999.90;;;;;;;;;;6216868;22;20022;-84
2023/08/21 11:59:36;;;;;;;1715.90;999.90;;;;;;;;;;6231057;22;21153;-84
2023/08/21 12:02:23;;;;;;;1824.85;999.90;;;;;;;;;;6231360;22;20904;-83
2023/08/21 12:05:12;;;;;;;1773.60;999.90;;;;;;;;;;6231046;22;20984;-84
2023/08/21 12:07:41;;;;;;;1999.90;999.90;;;;;;;;;;6214991;22;20018;-84
2023/08/21 12:10:10;;;;;;;1780.78;999.90;;;;;;;;;;6201466;22;20026;-85
2023/08/21 12:12:37;;;;;;;1841.05;999.90;;;;;;;;;;6170940;22;20802;-84
2023/08/21 12:15:06;;;;;;;1923.13;999.90;;;;;;;;;;6172776;22;20121;-84
2023/08/21 12:17:35;;;;;;;1712.82;999.90;;;;;;;;;;6174368;22;20018;-84
2023/08/21 12:20:10;;;;;;;1921.85;999.90;;;;;;;;;;6166495;22;20049;-84
2023/08/21 12:22:37;;;;;;;1977.25;999.90;;;;;;;;;;6195251;22;20025;-85
2023/08/21 12:25:05;;;;;;;1827.22;999.90;;;;;;;;;;6222537;22;20064;-85
2023/08/21 12:27:31;;;;;;;1812.43;999.90;;;;;;;;;;6226601;22;20019;-83
2023/08/21 12:29:58;;;;;;;1833.38;999.90;;;;;;;;;;6194471;22;20076;-84
2023/08/21 12:32:24;;;;;;;1860.00;999.90;;;;;;;;;;6224348;22;21068;-84
2023/08/21 12:34:52;;;;;;;1898.60;999.90;;;;;;;;;;6223947;22;20033;-84
2023/08/21 12:37:18;;;;;;;1863.03;999.90;;;;;;;;;;6227457;22;20179;-84
2023/08/21 12:39:45;;;;;;;1804.88;999.90;;;;;;;;;;6223136;22;20073;-84
2023/08/21 12:42:12;;;;;;;1802.45;999.90;;;;;;;;;;6231097;22;20014;-84
2023/08/21 12:44:41;;;;;;;1871.82;999.90;;;;;;;;;;6223476;22;20064;-84
2023/08/21 12:47:09;;;;;;;1918.80;999.90;;;;;;;;;;6224244;22;20021;-85
2023/08/21 12:49:36;;;;;;;1837.45;999.90;;;;;;;;;;6226591;22;20010;-84
2023/08/21 12:52:05;;;;;;;1858.72;999.90;;;;;;;;;;6223833;22;20011;-84
2023/08/21 12:54:34;;;;;;;1838.45;999.90;;;;;;;;;;6224609;22;20156;-85
2023/08/21 12:57:01;;;;;;;1864.25;999.90;;;;;;;;;;6222935;22;20045;-84
2023/08/21 12:59:27;;;;;;;1832.28;999.90;;;;;;;;;;6195390;22;20015;-85
2023/08/21 13:01:54;;;;;;;1947.60;999.90;;;;;;;;;;6221529;22;21015;-84
2023/08/21 13:04:21;;;;;;;1817.95;999.90;;;;;;;;;;6219722;22;20023;-84
2023/08/21 13:06:47;;;;;;;1874.60;999.90;;;;;;;;;;6223430;22;20014;-83
2023/08/21 13:09:14;;;;;;;1939.90;999.90;;;;;;;;;;6215040;22;20113;-83
2023/08/21 13:11:41;;;;;;;1882.53;999.90;;;;;;;;;;6221569;22;20040;-83
2023/08/21 13:14:08;;;;;;;1842.32;999.90;;;;;;;;;;6215098;22;20740;-83
2023/08/21 13:16:34;;;;;;;1999.90;999.90;;;;;;;;;;6215126;22;20023;-83
2023/08/21 13:19:01;;;;;;;1877.43;999.90;;;;;;;;;;6215161;22;21113;-84
2023/08/21 13:21:28;;;;;;;1861.25;999.90;;;;;;;;;;6193774;22;20071;-84
2023/08/21 13:23:54;;;;;;;1918.10;999.90;;;;;;;;;;6215354;22;21003;-84
2023/08/21 13:26:21;;;;;;;1881.68;999.90;;;;;;;;;;6216518;22;20015;-84
2023/08/21 13:28:48;;;;;;;1971.45;999.90;;;;;;;;;;6214829;22;20958;-84
2023/08/21 13:31:15;;;;;;;1928.13;999.90;;;;;;;;;;6216736;22;20018;-84
2023/08/21 13:33:45;;;;;;;1922.18;999.90;;;;;;;;;;6214550;22;20018;-85
2023/08/21 13:36:17;;;;;;;1867.38;999.90;;;;;;;;;;6221131;22;20021;-88
2023/08/21 13:38:53;;;;;;;1855.05;999.90;;;;;;;;;;6216398;22;20023;-83
2023/08/21 13:41:22;;;;;;;1917.75;999.90;;;;;;;;;;6161692;22;20045;-83
2023/08/21 13:43:52;;;;;;;1999.90;999.90;;;;;;;;;;6187072;22;20105;-83
2023/08/21 13:46:21;;;;;;;1857.82;999.90;;;;;;;;;;6165273;22;20018;-84
2023/08/21 13:48:48;;;;;;;1841.40;999.90;;;;;;;;;;6215693;22;20231;-85
2023/08/21 13:51:22;;;;;;;1862.25;999.90;;;;;;;;;;6220454;22;20910;-83